sensor_id;sensor_type;location;lat;lon;timestamp;pressure;altitude;pressure_sealevel;temperature;humidity
48404;BME280;34202;52.536;6.042;2022-08-07T00:01:45;102829.02;;;14.81;68.57
48404;BME280;34202;52.536;6.042;2022-08-07T00:06:45;102822.80;;;14.76;68.53
48404;BME280;34202;52.536;6.042;2022-08-07T00:11:46;102820.77;;;14.72;68.89
48404;BME280;34202;52.536;6.042;2022-08-07T00:16:46;102825.96;;;14.68;69.06
48404;BME280;34202;52.536;6.042;2022-08-07T00:21:47;102821.99;;;14.63;69.25
48404;BME280;34202;52.536;6.042;2022-08-07T00:26:48;102820.70;;;14.60;69.50
48404;BME280;34202;52.536;6.042;2022-08-07T00:31:51;102817.23;;;14.55;70.00
48404;BME280;34202;52.536;6.042;2022-08-07T00:36:53;102814.33;;;14.51;70.42
48404;BME280;34202;52.536;6.042;2022-08-07T00:41:58;102810.22;;;14.46;70.83
48404;BME280;34202;52.536;6.042;2022-08-07T00:46:58;102810.13;;;14.43;70.92
48404;BME280;34202;52.536;6.042;2022-08-07T00:51:58;102807.23;;;14.38;71.07
48404;BME280;34202;52.536;6.042;2022-08-07T00:56:59;102803.10;;;14.34;71.19
48404;BME280;34202;52.536;6.042;2022-08-07T01:01:59;102801.59;;;14.29;71.26
48404;BME280;34202;52.536;6.042;2022-08-07T01:07:02;102800.77;;;14.24;71.40
48404;BME280;34202;52.536;6.042;2022-08-07T01:12:03;102798.21;;;14.19;71.63
48404;BME280;34202;52.536;6.042;2022-08-07T01:17:04;102804.42;;;14.15;71.62
48404;BME280;34202;52.536;6.042;2022-08-07T01:22:05;102800.65;;;14.11;71.85
48404;BME280;34202;52.536;6.042;2022-08-07T01:27:06;102797.16;;;14.04;72.11
48404;BME280;34202;52.536;6.042;2022-08-07T01:32:06;102796.16;;;13.99;72.44
48404;BME280;34202;52.536;6.042;2022-08-07T01:37:07;102792.19;;;13.93;72.70
48404;BME280;34202;52.536;6.042;2022-08-07T01:42:07;102790.31;;;13.88;72.76
48404;BME280;34202;52.536;6.042;2022-08-07T01:47:08;102787.95;;;13.85;73.13
48404;BME280;34202;52.536;6.042;2022-08-07T01:52:09;102787.50;;;13.80;73.31
48404;BME280;34202;52.536;6.042;2022-08-07T01:57:16;102785.99;;;13.76;73.36
48404;BME280;34202;52.536;6.042;2022-08-07T02:02:34;102782.06;;;13.72;73.51
48404;BME280;34202;52.536;6.042;2022-08-07T02:07:41;102774.45;;;13.69;73.60
48404;BME280;34202;52.536;6.042;2022-08-07T02:12:44;102770.37;;;13.67;73.79
48404;BME280;34202;52.536;6.042;2022-08-07T02:17:46;102768.71;;;13.64;73.88
48404;BME280;34202;52.536;6.042;2022-08-07T02:22:53;102761.86;;;13.61;74.03
48404;BME280;34202;52.536;6.042;2022-08-07T02:27:57;102760.70;;;13.58;74.04
48404;BME280;34202;52.536;6.042;2022-08-07T02:33:01;102764.98;;;13.54;74.22
48404;BME280;34202;52.536;6.042;2022-08-07T02:38:03;102767.85;;;13.50;74.46
48404;BME280;34202;52.536;6.042;2022-08-07T02:43:06;102764.20;;;13.44;74.55
48404;BME280;34202;52.536;6.042;2022-08-07T02:48:07;102759.41;;;13.35;74.63
48404;BME280;34202;52.536;6.042;2022-08-07T02:53:15;102760.16;;;13.24;74.85
48404;BME280;34202;52.536;6.042;2022-08-07T02:58:18;102756.23;;;13.14;74.95
48404;BME280;34202;52.536;6.042;2022-08-07T03:03:20;102760.16;;;13.05;75.28
48404;BME280;34202;52.536;6.042;2022-08-07T03:08:23;102760.48;;;12.97;75.59
48404;BME280;34202;52.536;6.042;2022-08-07T03:13:24;102757.00;;;12.97;75.89
48404;BME280;34202;52.536;6.042;2022-08-07T03:18:25;102758.95;;;12.99;75.74
48404;BME280;34202;52.536;6.042;2022-08-07T03:23:27;102758.29;;;13.00;76.07
48404;BME280;34202;52.536;6.042;2022-08-07T03:28:28;102753.38;;;12.99;76.23
48404;BME280;34202;52.536;6.042;2022-08-07T03:33:29;102749.66;;;12.98;76.32
48404;BME280;34202;52.536;6.042;2022-08-07T03:38:31;102751.16;;;12.94;76.45
48404;BME280;34202;52.536;6.042;2022-08-07T03:43:32;102753.23;;;12.94;76.29
48404;BME280;34202;52.536;6.042;2022-08-07T03:48:34;102753.05;;;12.94;76.45
48404;BME280;34202;52.536;6.042;2022-08-07T03:53:36;102752.69;;;12.93;76.49
48404;BME280;34202;52.536;6.042;2022-08-07T03:58:37;102751.10;;;12.92;76.51
48404;BME280;34202;52.536;6.042;2022-08-07T04:03:38;102751.77;;;12.91;76.45
48404;BME280;34202;52.536;6.042;2022-08-07T04:08:39;102750.83;;;12.89;76.32
48404;BME280;34202;52.536;6.042;2022-08-07T04:13:40;102747.98;;;12.87;76.15
48404;BME280;34202;52.536;6.042;2022-08-07T04:18:41;102750.93;;;12.86;76.40
48404;BME280;34202;52.536;6.042;2022-08-07T04:23:41;102752.11;;;12.85;76.70
48404;BME280;34202;52.536;6.042;2022-08-07T04:28:43;102759.40;;;12.83;76.70
48404;BME280;34202;52.536;6.042;2022-08-07T04:33:45;102763.05;;;12.82;76.93
48404;BME280;34202;52.536;6.042;2022-08-07T04:38:45;102767.88;;;12.80;77.07
48404;BME280;34202;52.536;6.042;2022-08-07T04:43:46;102763.48;;;12.79;77.25
48404;BME280;34202;52.536;6.042;2022-08-07T04:49:04;102761.19;;;12.78;77.44
48404;BME280;34202;52.536;6.042;2022-08-07T04:54:19;102758.90;;;12.78;77.20
48404;BME280;34202;52.536;6.042;2022-08-07T04:59:32;102758.02;;;12.77;77.07
48404;BME280;34202;52.536;6.042;2022-08-07T05:04:41;102765.73;;;12.79;77.30
48404;BME280;34202;52.536;6.042;2022-08-07T05:09:58;102765.95;;;12.80;77.52
48404;BME280;34202;52.536;6.042;2022-08-07T05:15:06;102769.15;;;12.82;77.83
48404;BME280;34202;52.536;6.042;2022-08-07T05:20:19;102775.11;;;12.83;77.99
48404;BME280;34202;52.536;6.042;2022-08-07T05:25:26;102772.39;;;12.85;78.07
48404;BME280;34202;52.536;6.042;2022-08-07T05:30:27;102766.52;;;12.87;78.19
48404;BME280;34202;52.536;6.042;2022-08-07T05:35:30;102764.48;;;12.90;78.37
48404;BME280;34202;52.536;6.042;2022-08-07T05:40:36;102767.89;;;12.93;78.38
48404;BME280;34202;52.536;6.042;2022-08-07T05:45:36;102767.50;;;12.98;78.82
48404;BME280;34202;52.536;6.042;2022-08-07T05:50:37;102768.98;;;13.01;78.96
48404;BME280;34202;52.536;6.042;2022-08-07T05:55:39;102769.81;;;13.06;79.18
48404;BME280;34202;52.536;6.042;2022-08-07T06:00:39;102767.36;;;13.12;79.30
48404;BME280;34202;52.536;6.042;2022-08-07T06:05:42;102772.61;;;13.19;79.60
48404;BME280;34202;52.536;6.042;2022-08-07T06:10:44;102774.60;;;13.27;79.91
48404;BME280;34202;52.536;6.042;2022-08-07T06:15:47;102773.81;;;13.37;79.95
48404;BME280;34202;52.536;6.042;2022-08-07T06:20:48;102778.44;;;13.54;80.54
48404;BME280;34202;52.536;6.042;2022-08-07T06:25:49;102776.56;;;13.69;80.58
48404;BME280;34202;52.536;6.042;2022-08-07T06:30:50;102780.11;;;13.86;80.54
48404;BME280;34202;52.536;6.042;2022-08-07T06:35:51;102771.49;;;14.07;80.78
48404;BME280;34202;52.536;6.042;2022-08-07T06:40:53;102776.16;;;14.27;80.73
48404;BME280;34202;52.536;6.042;2022-08-07T06:45:54;102777.45;;;14.47;80.51
48404;BME280;34202;52.536;6.042;2022-08-07T06:50:58;102774.80;;;14.69;80.54
48404;BME280;34202;52.536;6.042;2022-08-07T06:56:00;102783.69;;;14.92;80.11
48404;BME280;34202;52.536;6.042;2022-08-07T07:01:05;102788.01;;;15.17;79.56
48404;BME280;34202;52.536;6.042;2022-08-07T07:06:07;102790.27;;;15.45;79.04
48404;BME280;34202;52.536;6.042;2022-08-07T07:11:08;102792.13;;;15.71;78.78
48404;BME280;34202;52.536;6.042;2022-08-07T07:16:13;102796.95;;;15.97;77.65
48404;BME280;34202;52.536;6.042;2022-08-07T07:21:19;102799.84;;;16.27;76.58
48404;BME280;34202;52.536;6.042;2022-08-07T07:26:22;102800.70;;;16.51;75.33
48404;BME280;34202;52.536;6.042;2022-08-07T07:31:27;102801.41;;;16.77;74.85
48404;BME280;34202;52.536;6.042;2022-08-07T07:36:32;102792.25;;;17.05;74.54
48404;BME280;34202;52.536;6.042;2022-08-07T07:41:34;102790.23;;;17.31;72.81
48404;BME280;34202;52.536;6.042;2022-08-07T07:46:36;102786.06;;;17.56;72.51
48404;BME280;34202;52.536;6.042;2022-08-07T07:51:40;102777.11;;;17.82;72.00
48404;BME280;34202;52.536;6.042;2022-08-07T07:56:43;102772.04;;;18.10;71.71
48404;BME280;34202;52.536;6.042;2022-08-07T08:01:47;102771.66;;;18.37;70.25
48404;BME280;34202;52.536;6.042;2022-08-07T08:06:49;102769.66;;;18.64;69.29
48404;BME280;34202;52.536;6.042;2022-08-07T08:11:51;102769.58;;;18.84;68.09
48404;BME280;34202;52.536;6.042;2022-08-07T08:16:53;102762.59;;;19.03;67.18
48404;BME280;34202;52.536;6.042;2022-08-07T08:21:57;102764.19;;;19.18;66.36
48404;BME280;34202;52.536;6.042;2022-08-07T08:27:18;102761.92;;;19.38;66.34
48404;BME280;34202;52.536;6.042;2022-08-07T08:32:23;102757.69;;;19.68;66.96
48404;BME280;34202;52.536;6.042;2022-08-07T08:37:26;102757.48;;;19.97;64.47
48404;BME280;34202;52.536;6.042;2022-08-07T08:53:24;102748.33;;;20.43;62.78
48404;BME280;34202;52.536;6.042;2022-08-07T08:58:48;102732.29;;;20.74;62.77
48404;BME280;34202;52.536;6.042;2022-08-07T09:04:05;102736.69;;;21.06;61.55
48404;BME280;34202;52.536;6.042;2022-08-07T09:20:27;102738.50;;;21.48;58.77
48404;BME280;34202;52.536;6.042;2022-08-07T09:35:58;102733.05;;;22.16;57.59
48404;BME280;34202;52.536;6.042;2022-08-07T09:41:28;102728.77;;;22.47;57.61
48404;BME280;34202;52.536;6.042;2022-08-07T10:13:26;102711.48;;;23.75;52.85
48404;BME280;34202;52.536;6.042;2022-08-07T10:24:13;102698.01;;;23.94;51.64
48404;BME280;34202;52.536;6.042;2022-08-07T10:34:41;102687.14;;;24.12;50.95
48404;BME280;34202;52.536;6.042;2022-08-07T10:45:30;102678.34;;;24.58;50.24
48404;BME280;34202;52.536;6.042;2022-08-07T10:50:53;102666.20;;;24.67;49.20
48404;BME280;34202;52.536;6.042;2022-08-07T11:01:48;102652.95;;;25.06;48.93
48404;BME280;34202;52.536;6.042;2022-08-07T11:12:10;102639.92;;;25.49;46.40
48404;BME280;34202;52.536;6.042;2022-08-07T11:17:20;102637.48;;;25.54;45.29
48404;BME280;34202;52.536;6.042;2022-08-07T11:22:32;102634.30;;;25.59;45.63
48404;BME280;34202;52.536;6.042;2022-08-07T11:28:13;102629.42;;;25.86;46.09
48404;BME280;34202;52.536;6.042;2022-08-07T11:33:33;102629.77;;;25.93;44.22
48404;BME280;34202;52.536;6.042;2022-08-07T11:39:05;102626.72;;;25.49;42.47
48404;BME280;34202;52.536;6.042;2022-08-07T11:49:59;102617.91;;;25.45;44.09
48404;BME280;34202;52.536;6.042;2022-08-07T11:55:16;102614.27;;;25.22;42.39
48404;BME280;34202;52.536;6.042;2022-08-07T12:06:23;102600.30;;;24.83;42.23
48404;BME280;34202;52.536;6.042;2022-08-07T12:11:34;102599.22;;;24.84;42.98
48404;BME280;34202;52.536;6.042;2022-08-07T12:16:45;102599.69;;;24.79;41.01
48404;BME280;34202;52.536;6.042;2022-08-07T12:21:56;102596.20;;;24.53;41.06
48404;BME280;34202;52.536;6.042;2022-08-07T12:27:11;102595.27;;;24.55;41.83
48404;BME280;34202;52.536;6.042;2022-08-07T12:32:19;102591.05;;;24.89;42.24
48404;BME280;34202;52.536;6.042;2022-08-07T12:37:24;102589.71;;;24.86;40.51
48404;BME280;34202;52.536;6.042;2022-08-07T12:42:27;102594.19;;;24.71;41.42
48404;BME280;34202;52.536;6.042;2022-08-07T12:57:50;102594.05;;;25.51;41.51
48404;BME280;34202;52.536;6.042;2022-08-07T13:03:16;102594.25;;;25.69;41.11
48404;BME280;34202;52.536;6.042;2022-08-07T13:08:37;102595.27;;;25.83;40.88
48404;BME280;34202;52.536;6.042;2022-08-07T13:19:05;102588.98;;;25.91;40.40
48404;BME280;34202;52.536;6.042;2022-08-07T13:24:26;102583.23;;;26.10;40.59
48404;BME280;34202;52.536;6.042;2022-08-07T13:29:41;102581.02;;;26.35;40.73
48404;BME280;34202;52.536;6.042;2022-08-07T13:34:50;102578.98;;;26.43;39.29
48404;BME280;34202;52.536;6.042;2022-08-07T13:40:19;102578.33;;;26.52;39.39
48404;BME280;34202;52.536;6.042;2022-08-07T13:45:26;102576.46;;;26.61;38.48
48404;BME280;34202;52.536;6.042;2022-08-07T13:50:28;102571.55;;;26.69;37.94
48404;BME280;34202;52.536;6.042;2022-08-07T13:55:29;102568.04;;;26.73;37.66
48404;BME280;34202;52.536;6.042;2022-08-07T14:00:35;102564.35;;;26.81;36.80
48404;BME280;34202;52.536;6.042;2022-08-07T14:05:36;102562.48;;;26.78;36.48
48404;BME280;34202;52.536;6.042;2022-08-07T14:10:40;102563.10;;;26.86;35.45
48404;BME280;34202;52.536;6.042;2022-08-07T14:15:42;102562.27;;;26.41;33.27
48404;BME280;34202;52.536;6.042;2022-08-07T14:20:46;102563.48;;;26.20;34.50
48404;BME280;34202;52.536;6.042;2022-08-07T14:25:56;102560.19;;;26.34;35.03
48404;BME280;34202;52.536;6.042;2022-08-07T14:30:58;102555.38;;;26.44;34.77
48404;BME280;34202;52.536;6.042;2022-08-07T14:36:00;102557.32;;;26.45;33.77
48404;BME280;34202;52.536;6.042;2022-08-07T14:41:05;102552.23;;;26.31;33.48
48404;BME280;34202;52.536;6.042;2022-08-07T14:46:08;102553.23;;;26.23;33.13
48404;BME280;34202;52.536;6.042;2022-08-07T14:51:10;102551.16;;;26.20;33.64
48404;BME280;34202;52.536;6.042;2022-08-07T14:56:14;102552.84;;;26.12;32.53
48404;BME280;34202;52.536;6.042;2022-08-07T15:01:21;102550.08;;;25.80;32.99
48404;BME280;34202;52.536;6.042;2022-08-07T15:06:24;102545.21;;;25.06;32.71
48404;BME280;34202;52.536;6.042;2022-08-07T15:11:29;102539.98;;;24.46;33.43
48404;BME280;34202;52.536;6.042;2022-08-07T15:16:37;102544.25;;;24.37;35.40
48404;BME280;34202;52.536;6.042;2022-08-07T15:21:48;102544.84;;;24.42;35.54
48404;BME280;34202;52.536;6.042;2022-08-07T15:27:02;102542.50;;;24.06;35.95
48404;BME280;34202;52.536;6.042;2022-08-07T15:32:06;102542.70;;;23.97;37.46
48404;BME280;34202;52.536;6.042;2022-08-07T15:37:07;102543.30;;;24.10;37.98
48404;BME280;34202;52.536;6.042;2022-08-07T15:42:45;102531.72;;;24.03;37.82
48404;BME280;34202;52.536;6.042;2022-08-07T15:47:53;102530.75;;;23.98;38.24
48404;BME280;34202;52.536;6.042;2022-08-07T15:53:25;102524.23;;;23.87;38.79
48404;BME280;34202;52.536;6.042;2022-08-07T15:58:47;102523.43;;;24.00;39.81
48404;BME280;34202;52.536;6.042;2022-08-07T16:03:55;102523.05;;;24.08;39.94
48404;BME280;34202;52.536;6.042;2022-08-07T16:09:07;102511.98;;;23.87;39.46
48404;BME280;34202;52.536;6.042;2022-08-07T16:30:20;102508.13;;;23.43;41.13
48404;BME280;34202;52.536;6.042;2022-08-07T16:35:37;102506.47;;;23.37;41.06
48404;BME280;34202;52.536;6.042;2022-08-07T16:52:02;102500.95;;;22.99;42.10
48404;BME280;34202;52.536;6.042;2022-08-07T16:57:47;102497.98;;;22.87;42.49
48404;BME280;34202;52.536;6.042;2022-08-07T17:03:16;102501.17;;;22.68;42.59
48404;BME280;34202;52.536;6.042;2022-08-07T17:08:48;102500.85;;;22.55;42.70
48404;BME280;34202;52.536;6.042;2022-08-07T17:13:51;102499.52;;;22.40;43.02
48404;BME280;34202;52.536;6.042;2022-08-07T17:35:06;102489.66;;;21.87;44.92
48404;BME280;34202;52.536;6.042;2022-08-07T17:40:27;102490.30;;;21.66;44.99
48404;BME280;34202;52.536;6.042;2022-08-07T17:46:42;102485.94;;;21.47;45.77
48404;BME280;34202;52.536;6.042;2022-08-07T17:56:58;102482.07;;;21.13;46.47
48404;BME280;34202;52.536;6.042;2022-08-07T18:02:06;102485.48;;;21.09;47.09
48404;BME280;34202;52.536;6.042;2022-08-07T18:12:22;102486.23;;;20.87;47.82
48404;BME280;34202;52.536;6.042;2022-08-07T18:17:35;102488.80;;;20.78;48.25
48404;BME280;34202;52.536;6.042;2022-08-07T18:23:04;102489.22;;;20.73;48.56
48404;BME280;34202;52.536;6.042;2022-08-07T18:28:33;102494.80;;;20.60;48.69
48404;BME280;34202;52.536;6.042;2022-08-07T18:44:02;102507.46;;;20.45;50.09
48404;BME280;34202;52.536;6.042;2022-08-07T18:54:24;102516.23;;;20.32;51.09
48404;BME280;34202;52.536;6.042;2022-08-07T19:05:19;102522.60;;;20.05;52.06
48404;BME280;34202;52.536;6.042;2022-08-07T19:10:28;102528.52;;;19.90;52.77
48404;BME280;34202;52.536;6.042;2022-08-07T19:15:38;102530.33;;;19.79;53.56
48404;BME280;34202;52.536;6.042;2022-08-07T19:26:13;102545.30;;;19.40;54.99
48404;BME280;34202;52.536;6.042;2022-08-07T19:31:35;102549.22;;;19.23;55.66
48404;BME280;34202;52.536;6.042;2022-08-07T19:36:40;102549.60;;;19.11;56.14
48404;BME280;34202;52.536;6.042;2022-08-07T19:41:44;102561.23;;;19.08;56.72
48404;BME280;34202;52.536;6.042;2022-08-07T19:46:47;102566.20;;;19.07;56.99
48404;BME280;34202;52.536;6.042;2022-08-07T19:51:50;102572.54;;;19.05;57.35
48404;BME280;34202;52.536;6.042;2022-08-07T19:56:53;102579.44;;;18.88;57.75
48404;BME280;34202;52.536;6.042;2022-08-07T20:02:00;102579.91;;;18.61;58.46
48404;BME280;34202;52.536;6.042;2022-08-07T20:07:02;102583.59;;;18.38;59.38
48404;BME280;34202;52.536;6.042;2022-08-07T20:12:04;102584.61;;;18.21;60.23
48404;BME280;34202;52.536;6.042;2022-08-07T20:17:06;102584.02;;;18.01;61.09
48404;BME280;34202;52.536;6.042;2022-08-07T20:22:14;102589.55;;;17.81;61.92
48404;BME280;34202;52.536;6.042;2022-08-07T20:27:20;102583.30;;;17.66;62.71
48404;BME280;34202;52.536;6.042;2022-08-07T20:32:28;102583.80;;;17.59;63.32
48404;BME280;34202;52.536;6.042;2022-08-07T20:37:32;102581.68;;;17.58;63.47
48404;BME280;34202;52.536;6.042;2022-08-07T20:42:37;102586.61;;;17.57;64.03
48404;BME280;34202;52.536;6.042;2022-08-07T20:47:39;102589.41;;;17.53;64.57
48404;BME280;34202;52.536;6.042;2022-08-07T20:52:43;102590.77;;;17.45;65.16
48404;BME280;34202;52.536;6.042;2022-08-07T20:57:48;102591.71;;;17.27;65.67
48404;BME280;34202;52.536;6.042;2022-08-07T21:02:51;102592.63;;;17.09;66.37
48404;BME280;34202;52.536;6.042;2022-08-07T21:08:07;102590.96;;;16.97;67.28
48404;BME280;34202;52.536;6.042;2022-08-07T21:13:19;102590.39;;;16.94;67.81
48404;BME280;34202;52.536;6.042;2022-08-07T21:18:23;102591.60;;;16.90;68.33
48404;BME280;34202;52.536;6.042;2022-08-07T21:23:43;102594.04;;;16.87;68.68
48404;BME280;34202;52.536;6.042;2022-08-07T21:28:53;102602.61;;;16.84;68.97
48404;BME280;34202;52.536;6.042;2022-08-07T21:34:11;102600.97;;;16.79;69.35
48404;BME280;34202;52.536;6.042;2022-08-07T21:39:32;102602.66;;;16.72;69.76
48404;BME280;34202;52.536;6.042;2022-08-07T21:44:42;102602.59;;;16.63;70.17
48404;BME280;34202;52.536;6.042;2022-08-07T21:49:57;102603.04;;;16.57;70.41
48404;BME280;34202;52.536;6.042;2022-08-07T21:55:14;102600.41;;;16.57;70.83
48404;BME280;34202;52.536;6.042;2022-08-07T22:00:17;102594.76;;;16.54;71.23
48404;BME280;34202;52.536;6.042;2022-08-07T22:05:24;102600.13;;;16.46;71.69
48404;BME280;34202;52.536;6.042;2022-08-07T22:10:29;102605.66;;;16.37;72.04
48404;BME280;34202;52.536;6.042;2022-08-07T22:15:40;102611.61;;;16.35;72.14
48404;BME280;34202;52.536;6.042;2022-08-07T22:21:02;102614.88;;;16.29;72.36
48404;BME280;34202;52.536;6.042;2022-08-07T22:26:21;102616.68;;;16.17;72.74
48404;BME280;34202;52.536;6.042;2022-08-07T22:31:44;102620.39;;;16.04;73.36
48404;BME280;34202;52.536;6.042;2022-08-07T22:37:04;102623.56;;;15.92;73.93
48404;BME280;34202;52.536;6.042;2022-08-07T22:42:27;102627.89;;;15.87;74.17
48404;BME280;34202;52.536;6.042;2022-08-07T22:58:09;102636.29;;;15.85;74.76
48404;BME280;34202;52.536;6.042;2022-08-07T23:19:25;102633.06;;;15.93;75.10
48404;BME280;34202;52.536;6.042;2022-08-07T23:25:19;102633.79;;;15.94;75.24
48404;BME280;34202;52.536;6.042;2022-08-07T23:30:31;102631.99;;;15.91;75.19
48404;BME280;34202;52.536;6.042;2022-08-07T23:36:02;102632.85;;;15.90;75.20
48404;BME280;34202;52.536;6.042;2022-08-07T23:46:42;102633.83;;;15.84;75.03
48404;BME280;34202;52.536;6.042;2022-08-07T23:51:50;102632.73;;;15.80;75.29
